sensor_id;sensor_type;location;lat;lon;timestamp;pressure;altitude;pressure_sealevel;temperature;humidity
55733;BME280;41637;52.364;9.910;2023-06-14T00:02:04;100984.80;;;14.52;56.80
55733;BME280;41637;52.364;9.910;2023-06-14T00:04:31;100980.66;;;14.47;57.15
55733;BME280;41637;52.364;9.910;2023-06-14T00:06:58;100982.19;;;14.44;56.95
55733;BME280;41637;52.364;9.910;2023-06-14T00:09:25;100984.38;;;14.41;57.04
55733;BME280;41637;52.364;9.910;2023-06-14T00:11:52;100984.37;;;14.40;57.07
55733;BME280;41637;52.364;9.910;2023-06-14T00:14:20;100985.05;;;14.38;57.41
55733;BME280;41637;52.364;9.910;2023-06-14T00:16:47;100987.15;;;14.35;57.48
55733;BME280;41637;52.364;9.910;2023-06-14T00:19:14;100995.82;;;14.31;57.77
55733;BME280;41637;52.364;9.910;2023-06-14T00:21:43;100996.75;;;14.28;57.78
55733;BME280;41637;52.364;9.910;2023-06-14T00:24:10;100998.02;;;14.23;58.28
55733;BME280;41637;52.364;9.910;2023-06-14T00:26:36;101000.80;;;14.19;58.52
55733;BME280;41637;52.364;9.910;2023-06-14T00:29:04;100999.83;;;14.15;58.45
55733;BME280;41637;52.364;9.910;2023-06-14T00:31:30;101002.33;;;14.10;58.88
55733;BME280;41637;52.364;9.910;2023-06-14T00:33:58;101006.15;;;14.06;59.22
55733;BME280;41637;52.364;9.910;2023-06-14T00:36:24;101006.06;;;14.02;59.25
55733;BME280;41637;52.364;9.910;2023-06-14T00:38:52;101003.58;;;13.96;59.66
55733;BME280;41637;52.364;9.910;2023-06-14T00:41:19;101005.66;;;13.92;59.63
55733;BME280;41637;52.364;9.910;2023-06-14T00:43:45;101001.03;;;13.88;59.96
55733;BME280;41637;52.364;9.910;2023-06-14T00:46:13;101002.44;;;13.83;59.98
55733;BME280;41637;52.364;9.910;2023-06-14T00:48:40;101003.28;;;13.79;60.17
55733;BME280;41637;52.364;9.910;2023-06-14T00:51:07;101003.48;;;13.75;60.41
55733;BME280;41637;52.364;9.910;2023-06-14T00:53:34;101004.75;;;13.70;60.55
55733;BME280;41637;52.364;9.910;2023-06-14T00:56:02;101000.02;;;13.65;60.94
55733;BME280;41637;52.364;9.910;2023-06-14T00:58:30;100999.30;;;13.61;60.99
55733;BME280;41637;52.364;9.910;2023-06-14T01:00:58;101003.27;;;13.56;61.14
55733;BME280;41637;52.364;9.910;2023-06-14T01:03:25;100999.27;;;13.53;61.52
55733;BME280;41637;52.364;9.910;2023-06-14T01:06:23;101000.73;;;13.50;61.67
55733;BME280;41637;52.364;9.910;2023-06-14T01:11:59;101000.77;;;13.42;62.03
55733;BME280;41637;52.364;9.910;2023-06-14T01:14:30;101003.91;;;13.38;62.38
55733;BME280;41637;52.364;9.910;2023-06-14T01:16:58;101005.58;;;13.34;62.33
55733;BME280;41637;52.364;9.910;2023-06-14T01:19:27;101010.04;;;13.31;62.56
55733;BME280;41637;52.364;9.910;2023-06-14T01:21:55;101005.48;;;13.28;62.64
55733;BME280;41637;52.364;9.910;2023-06-14T01:24:22;101003.11;;;13.23;62.86
55733;BME280;41637;52.364;9.910;2023-06-14T01:26:54;101005.47;;;13.19;63.07
55733;BME280;41637;52.364;9.910;2023-06-14T01:29:25;101006.38;;;13.14;63.44
55733;BME280;41637;52.364;9.910;2023-06-14T01:31:54;101004.09;;;13.11;63.70
55733;BME280;41637;52.364;9.910;2023-06-14T01:34:21;101005.08;;;13.07;63.68
55733;BME280;41637;52.364;9.910;2023-06-14T01:36:49;101003.88;;;13.03;63.79
55733;BME280;41637;52.364;9.910;2023-06-14T01:39:17;101004.40;;;13.01;63.89
55733;BME280;41637;52.364;9.910;2023-06-14T01:41:45;101005.05;;;12.98;64.13
55733;BME280;41637;52.364;9.910;2023-06-14T01:44:14;101008.72;;;12.96;64.21
55733;BME280;41637;52.364;9.910;2023-06-14T01:46:42;101008.45;;;12.94;64.55
55733;BME280;41637;52.364;9.910;2023-06-14T01:49:10;101012.33;;;12.93;64.66
55733;BME280;41637;52.364;9.910;2023-06-14T01:51:37;101012.33;;;12.91;64.86
55733;BME280;41637;52.364;9.910;2023-06-14T01:54:04;101014.05;;;12.90;64.85
55733;BME280;41637;52.364;9.910;2023-06-14T01:56:32;101015.30;;;12.88;64.93
55733;BME280;41637;52.364;9.910;2023-06-14T01:58:59;101017.63;;;12.87;64.95
55733;BME280;41637;52.364;9.910;2023-06-14T02:01:25;101015.39;;;12.84;65.19
55733;BME280;41637;52.364;9.910;2023-06-14T02:03:53;101013.31;;;12.82;65.32
55733;BME280;41637;52.364;9.910;2023-06-14T02:06:20;101009.91;;;12.80;65.49
55733;BME280;41637;52.364;9.910;2023-06-14T02:08:47;101013.69;;;12.78;65.51
55733;BME280;41637;52.364;9.910;2023-06-14T02:11:14;101009.10;;;12.75;65.70
55733;BME280;41637;52.364;9.910;2023-06-14T02:13:41;101010.58;;;12.73;65.61
55733;BME280;41637;52.364;9.910;2023-06-14T02:16:09;101013.93;;;12.70;65.65
55733;BME280;41637;52.364;9.910;2023-06-14T02:18:36;101017.22;;;12.68;65.98
55733;BME280;41637;52.364;9.910;2023-06-14T02:21:03;101018.88;;;12.65;65.99
55733;BME280;41637;52.364;9.910;2023-06-14T02:23:30;101018.32;;;12.64;66.30
55733;BME280;41637;52.364;9.910;2023-06-14T02:26:01;101019.93;;;12.62;66.27
55733;BME280;41637;52.364;9.910;2023-06-14T02:28:30;101022.40;;;12.61;66.39
55733;BME280;41637;52.364;9.910;2023-06-14T02:30:56;101019.42;;;12.59;66.34
55733;BME280;41637;52.364;9.910;2023-06-14T02:33:23;101019.37;;;12.58;66.52
55733;BME280;41637;52.364;9.910;2023-06-14T02:35:51;101020.45;;;12.56;66.61
55733;BME280;41637;52.364;9.910;2023-06-14T02:38:19;101019.36;;;12.55;66.62
55733;BME280;41637;52.364;9.910;2023-06-14T02:40:47;101021.21;;;12.53;66.71
55733;BME280;41637;52.364;9.910;2023-06-14T02:43:14;101018.95;;;12.50;66.92
55733;BME280;41637;52.364;9.910;2023-06-14T02:45:42;101025.74;;;12.48;67.04
55733;BME280;41637;52.364;9.910;2023-06-14T02:48:08;101024.95;;;12.45;67.21
55733;BME280;41637;52.364;9.910;2023-06-14T02:50:36;101032.06;;;12.43;67.44
55733;BME280;41637;52.364;9.910;2023-06-14T02:53:03;101032.31;;;12.41;67.70
55733;BME280;41637;52.364;9.910;2023-06-14T02:55:30;101035.39;;;12.40;67.76
55733;BME280;41637;52.364;9.910;2023-06-14T02:57:57;101032.58;;;12.38;67.95
55733;BME280;41637;52.364;9.910;2023-06-14T03:00:24;101038.24;;;12.36;68.09
55733;BME280;41637;52.364;9.910;2023-06-14T03:02:51;101043.60;;;12.36;68.39
55733;BME280;41637;52.364;9.910;2023-06-14T03:05:18;101046.44;;;12.35;68.48
55733;BME280;41637;52.364;9.910;2023-06-14T03:07:48;101050.91;;;12.36;68.78
55733;BME280;41637;52.364;9.910;2023-06-14T03:10:17;101049.77;;;12.35;68.81
55733;BME280;41637;52.364;9.910;2023-06-14T03:12:44;101052.27;;;12.35;68.86
55733;BME280;41637;52.364;9.910;2023-06-14T03:15:11;101055.31;;;12.34;69.05
55733;BME280;41637;52.364;9.910;2023-06-14T03:17:39;101056.21;;;12.34;69.21
55733;BME280;41637;52.364;9.910;2023-06-14T03:20:07;101055.52;;;12.34;69.33
55733;BME280;41637;52.364;9.910;2023-06-14T03:22:35;101057.48;;;12.34;69.32
55733;BME280;41637;52.364;9.910;2023-06-14T03:25:02;101059.08;;;12.34;69.43
55733;BME280;41637;52.364;9.910;2023-06-14T03:27:31;101063.98;;;12.33;69.46
55733;BME280;41637;52.364;9.910;2023-06-14T03:29:57;101067.40;;;12.33;69.46
55733;BME280;41637;52.364;9.910;2023-06-14T03:32:24;101068.23;;;12.33;69.48
55733;BME280;41637;52.364;9.910;2023-06-14T03:34:51;101070.98;;;12.34;69.64
55733;BME280;41637;52.364;9.910;2023-06-14T03:37:19;101072.38;;;12.34;69.62
55733;BME280;41637;52.364;9.910;2023-06-14T03:39:46;101071.25;;;12.35;69.58
55733;BME280;41637;52.364;9.910;2023-06-14T03:42:14;101074.07;;;12.35;69.69
55733;BME280;41637;52.364;9.910;2023-06-14T03:44:41;101074.37;;;12.35;69.77
55733;BME280;41637;52.364;9.910;2023-06-14T03:47:07;101077.52;;;12.36;69.98
55733;BME280;41637;52.364;9.910;2023-06-14T03:49:35;101075.13;;;12.37;70.03
55733;BME280;41637;52.364;9.910;2023-06-14T03:52:02;101079.61;;;12.38;70.07
55733;BME280;41637;52.364;9.910;2023-06-14T03:54:29;101083.45;;;12.39;70.18
55733;BME280;41637;52.364;9.910;2023-06-14T03:57:01;101087.02;;;12.42;70.13
55733;BME280;41637;52.364;9.910;2023-06-14T03:59:28;101090.15;;;12.46;70.40
55733;BME280;41637;52.364;9.910;2023-06-14T04:01:55;101095.26;;;12.50;70.21
55733;BME280;41637;52.364;9.910;2023-06-14T04:04:22;101094.35;;;12.54;70.33
55733;BME280;41637;52.364;9.910;2023-06-14T04:06:58;101095.78;;;12.58;70.27
55733;BME280;41637;52.364;9.910;2023-06-14T04:09:27;101096.34;;;12.65;70.18
55733;BME280;41637;52.364;9.910;2023-06-14T04:11:54;101098.34;;;12.70;70.36
55733;BME280;41637;52.364;9.910;2023-06-14T04:14:21;101096.56;;;12.76;70.33
55733;BME280;41637;52.364;9.910;2023-06-14T04:16:49;101100.86;;;12.84;70.03
55733;BME280;41637;52.364;9.910;2023-06-14T04:19:16;101101.91;;;12.90;70.02
55733;BME280;41637;52.364;9.910;2023-06-14T04:21:43;101099.91;;;12.96;69.92
55733;BME280;41637;52.364;9.910;2023-06-14T04:24:10;101105.17;;;13.04;69.91
55733;BME280;41637;52.364;9.910;2023-06-14T04:26:41;101105.27;;;13.13;69.66
55733;BME280;41637;52.364;9.910;2023-06-14T04:29:11;101109.42;;;13.23;69.55
55733;BME280;41637;52.364;9.910;2023-06-14T04:31:43;101101.29;;;13.31;69.52
55733;BME280;41637;52.364;9.910;2023-06-14T04:34:11;101108.38;;;13.41;69.13
55733;BME280;41637;52.364;9.910;2023-06-14T04:36:43;101108.05;;;13.51;69.06
55733;BME280;41637;52.364;9.910;2023-06-14T04:39:16;101110.07;;;13.61;68.79
55733;BME280;41637;52.364;9.910;2023-06-14T04:41:44;101110.66;;;13.69;68.70
55733;BME280;41637;52.364;9.910;2023-06-14T04:44:11;101111.77;;;13.78;68.53
55733;BME280;41637;52.364;9.910;2023-06-14T04:46:39;101116.71;;;13.86;68.21
55733;BME280;41637;52.364;9.910;2023-06-14T04:49:16;101117.60;;;13.96;68.10
55733;BME280;41637;52.364;9.910;2023-06-14T04:51:44;101122.85;;;14.05;67.78
55733;BME280;41637;52.364;9.910;2023-06-14T04:54:11;101124.93;;;14.14;67.59
55733;BME280;41637;52.364;9.910;2023-06-14T04:56:42;101121.67;;;14.23;67.39
55733;BME280;41637;52.364;9.910;2023-06-14T04:59:09;101123.54;;;14.33;67.14
55733;BME280;41637;52.364;9.910;2023-06-14T05:01:35;101120.66;;;14.42;66.95
55733;BME280;41637;52.364;9.910;2023-06-14T05:04:06;101124.70;;;14.51;66.47
55733;BME280;41637;52.364;9.910;2023-06-14T05:06:33;101124.29;;;14.60;66.52
55733;BME280;41637;52.364;9.910;2023-06-14T05:09:00;101124.86;;;14.70;66.15
55733;BME280;41637;52.364;9.910;2023-06-14T05:11:27;101127.95;;;14.79;66.04
55733;BME280;41637;52.364;9.910;2023-06-14T05:13:54;101131.35;;;14.88;65.66
55733;BME280;41637;52.364;9.910;2023-06-14T05:16:21;101130.13;;;14.98;65.66
55733;BME280;41637;52.364;9.910;2023-06-14T05:18:49;101133.96;;;15.06;65.28
55733;BME280;41637;52.364;9.910;2023-06-14T05:21:17;101138.04;;;15.17;64.94
55733;BME280;41637;52.364;9.910;2023-06-14T05:23:45;101141.80;;;15.25;64.64
55733;BME280;41637;52.364;9.910;2023-06-14T05:26:11;101144.70;;;15.33;64.35
55733;BME280;41637;52.364;9.910;2023-06-14T05:28:38;101147.95;;;15.41;63.83
55733;BME280;41637;52.364;9.910;2023-06-14T05:31:05;101147.98;;;15.46;63.72
55733;BME280;41637;52.364;9.910;2023-06-14T05:33:32;101149.48;;;15.53;63.48
55733;BME280;41637;52.364;9.910;2023-06-14T05:35:59;101152.31;;;15.61;63.44
55733;BME280;41637;52.364;9.910;2023-06-14T05:38:25;101150.70;;;15.68;63.37
55733;BME280;41637;52.364;9.910;2023-06-14T05:40:53;101150.79;;;15.76;63.35
55733;BME280;41637;52.364;9.910;2023-06-14T05:43:20;101146.13;;;15.83;63.20
55733;BME280;41637;52.364;9.910;2023-06-14T05:45:47;101147.98;;;15.93;63.16
55733;BME280;41637;52.364;9.910;2023-06-14T05:48:14;101148.88;;;16.03;62.86
55733;BME280;41637;52.364;9.910;2023-06-14T05:50:41;101149.96;;;16.13;62.42
55733;BME280;41637;52.364;9.910;2023-06-14T05:53:08;101151.17;;;16.20;61.84
55733;BME280;41637;52.364;9.910;2023-06-14T05:55:35;101154.36;;;16.26;61.66
55733;BME280;41637;52.364;9.910;2023-06-14T05:58:03;101155.77;;;16.31;61.42
55733;BME280;41637;52.364;9.910;2023-06-14T06:00:30;101156.29;;;16.38;60.82
55733;BME280;41637;52.364;9.910;2023-06-14T06:02:56;101158.29;;;16.43;60.61
55733;BME280;41637;52.364;9.910;2023-06-14T06:05:27;101162.23;;;16.53;60.76
55733;BME280;41637;52.364;9.910;2023-06-14T06:07:54;101163.39;;;16.62;60.45
55733;BME280;41637;52.364;9.910;2023-06-14T06:10:21;101164.93;;;16.69;60.18
55733;BME280;41637;52.364;9.910;2023-06-14T06:12:48;101162.10;;;16.76;60.09
55733;BME280;41637;52.364;9.910;2023-06-14T06:15:15;101162.00;;;16.83;59.99
55733;BME280;41637;52.364;9.910;2023-06-14T06:17:43;101163.98;;;16.94;60.00
55733;BME280;41637;52.364;9.910;2023-06-14T06:20:22;101164.03;;;17.05;59.48
55733;BME280;41637;52.364;9.910;2023-06-14T06:22:55;101162.55;;;17.14;58.90
55733;BME280;41637;52.364;9.910;2023-06-14T06:25:22;101160.32;;;17.21;59.01
55733;BME280;41637;52.364;9.910;2023-06-14T06:27:53;101158.22;;;17.31;58.50
55733;BME280;41637;52.364;9.910;2023-06-14T06:30:20;101158.40;;;17.39;58.39
55733;BME280;41637;52.364;9.910;2023-06-14T06:32:47;101160.30;;;17.45;58.15
55733;BME280;41637;52.364;9.910;2023-06-14T06:35:14;101168.66;;;17.55;58.23
55733;BME280;41637;52.364;9.910;2023-06-14T06:37:42;101166.86;;;17.64;58.07
55733;BME280;41637;52.364;9.910;2023-06-14T06:40:09;101164.78;;;17.68;57.03
55733;BME280;41637;52.364;9.910;2023-06-14T06:42:36;101168.12;;;17.73;56.92
55733;BME280;41637;52.364;9.910;2023-06-14T06:45:04;101174.83;;;17.77;57.00
55733;BME280;41637;52.364;9.910;2023-06-14T06:47:32;101177.02;;;17.85;57.36
55733;BME280;41637;52.364;9.910;2023-06-14T06:49:59;101179.02;;;17.95;56.99
55733;BME280;41637;52.364;9.910;2023-06-14T06:52:26;101175.05;;;18.05;56.31
55733;BME280;41637;52.364;9.910;2023-06-14T06:54:53;101181.11;;;18.10;55.48
55733;BME280;41637;52.364;9.910;2023-06-14T06:57:21;101187.29;;;18.12;55.06
55733;BME280;41637;52.364;9.910;2023-06-14T06:59:51;101192.33;;;18.16;54.96
55733;BME280;41637;52.364;9.910;2023-06-14T07:02:18;101195.17;;;18.23;55.22
55733;BME280;41637;52.364;9.910;2023-06-14T07:04:45;101194.11;;;18.31;54.64
55733;BME280;41637;52.364;9.910;2023-06-14T07:07:12;101194.66;;;18.38;54.52
55733;BME280;41637;52.364;9.910;2023-06-14T07:09:39;101200.08;;;18.45;54.16
55733;BME280;41637;52.364;9.910;2023-06-14T07:12:08;101201.48;;;18.53;53.37
55733;BME280;41637;52.364;9.910;2023-06-14T07:14:35;101203.84;;;18.58;53.07
55733;BME280;41637;52.364;9.910;2023-06-14T07:17:02;101194.78;;;18.60;52.66
55733;BME280;41637;52.364;9.910;2023-06-14T07:19:29;101194.55;;;18.65;52.83
55733;BME280;41637;52.364;9.910;2023-06-14T07:21:57;101197.88;;;18.75;52.86
55733;BME280;41637;52.364;9.910;2023-06-14T07:24:24;101200.31;;;18.86;52.94
55733;BME280;41637;52.364;9.910;2023-06-14T07:26:51;101202.02;;;18.96;52.42
55733;BME280;41637;52.364;9.910;2023-06-14T07:29:18;101206.38;;;19.06;52.13
55733;BME280;41637;52.364;9.910;2023-06-14T07:31:45;101203.60;;;19.16;51.76
55733;BME280;41637;52.364;9.910;2023-06-14T07:38:16;101199.00;;;19.27;50.12
55733;BME280;41637;52.364;9.910;2023-06-14T07:44:34;101204.48;;;19.38;49.71
55733;BME280;41637;52.364;9.910;2023-06-14T07:47:54;101208.98;;;19.48;49.57
55733;BME280;41637;52.364;9.910;2023-06-14T07:54:37;101202.67;;;19.60;48.31
55733;BME280;41637;52.364;9.910;2023-06-14T07:57:57;101193.96;;;19.61;48.63
55733;BME280;41637;52.364;9.910;2023-06-14T08:04:22;101195.04;;;19.80;47.82
55733;BME280;41637;52.364;9.910;2023-06-14T08:07:12;101195.91;;;19.87;47.48
55733;BME280;41637;52.364;9.910;2023-06-14T08:09:39;101197.39;;;19.92;47.51
55733;BME280;41637;52.364;9.910;2023-06-14T08:12:07;101195.10;;;20.03;47.73
55733;BME280;41637;52.364;9.910;2023-06-14T08:14:37;101200.40;;;20.17;47.69
55733;BME280;41637;52.364;9.910;2023-06-14T08:17:03;101192.06;;;20.31;47.35
55733;BME280;41637;52.364;9.910;2023-06-14T08:19:30;101194.61;;;20.43;46.62
55733;BME280;41637;52.364;9.910;2023-06-14T08:21:57;101198.52;;;20.50;46.28
55733;BME280;41637;52.364;9.910;2023-06-14T08:24:24;101196.30;;;20.52;45.92
55733;BME280;41637;52.364;9.910;2023-06-14T08:26:53;101192.95;;;20.57;45.97
55733;BME280;41637;52.364;9.910;2023-06-14T08:29:20;101200.16;;;20.66;45.52
55733;BME280;41637;52.364;9.910;2023-06-14T08:31:47;101197.77;;;20.70;45.17
55733;BME280;41637;52.364;9.910;2023-06-14T08:34:14;101198.12;;;20.75;45.01
55733;BME280;41637;52.364;9.910;2023-06-14T08:36:41;101199.08;;;20.79;44.99
55733;BME280;41637;52.364;9.910;2023-06-14T08:39:08;101201.42;;;20.84;44.70
55733;BME280;41637;52.364;9.910;2023-06-14T08:41:36;101193.86;;;20.88;44.17
55733;BME280;41637;52.364;9.910;2023-06-14T08:44:03;101197.23;;;20.95;44.28
55733;BME280;41637;52.364;9.910;2023-06-14T08:46:32;101199.70;;;21.04;43.98
55733;BME280;41637;52.364;9.910;2023-06-14T08:49:01;101197.30;;;21.14;44.04
55733;BME280;41637;52.364;9.910;2023-06-14T08:51:30;101189.83;;;21.24;44.19
55733;BME280;41637;52.364;9.910;2023-06-14T08:54:00;101196.14;;;21.33;43.06
55733;BME280;41637;52.364;9.910;2023-06-14T08:56:30;101196.56;;;21.41;43.02
55733;BME280;41637;52.364;9.910;2023-06-14T08:58:58;101196.92;;;21.45;43.14
55733;BME280;41637;52.364;9.910;2023-06-14T09:01:36;101196.24;;;21.48;43.10
55733;BME280;41637;52.364;9.910;2023-06-14T09:04:05;101200.00;;;21.52;42.22
55733;BME280;41637;52.364;9.910;2023-06-14T09:06:35;101194.64;;;21.59;42.40
55733;BME280;41637;52.364;9.910;2023-06-14T09:09:03;101193.81;;;21.68;42.35
55733;BME280;41637;52.364;9.910;2023-06-14T09:11:30;101197.81;;;21.75;42.48
55733;BME280;41637;52.364;9.910;2023-06-14T09:13:58;101198.55;;;21.82;42.37
55733;BME280;41637;52.364;9.910;2023-06-14T09:16:25;101197.43;;;21.91;42.27
55733;BME280;41637;52.364;9.910;2023-06-14T09:18:53;101198.14;;;22.01;41.89
55733;BME280;41637;52.364;9.910;2023-06-14T09:21:20;101203.21;;;22.12;41.48
55733;BME280;41637;52.364;9.910;2023-06-14T09:23:48;101203.02;;;22.18;41.43
55733;BME280;41637;52.364;9.910;2023-06-14T09:26:17;101202.52;;;22.24;41.39
55733;BME280;41637;52.364;9.910;2023-06-14T09:28:48;101203.71;;;22.33;41.07
55733;BME280;41637;52.364;9.910;2023-06-14T09:31:17;101198.92;;;22.43;41.00
55733;BME280;41637;52.364;9.910;2023-06-14T09:33:46;101199.96;;;22.52;40.62
55733;BME280;41637;52.364;9.910;2023-06-14T09:36:22;101205.02;;;22.62;40.46
55733;BME280;41637;52.364;9.910;2023-06-14T09:38:53;101204.25;;;22.70;40.48
55733;BME280;41637;52.364;9.910;2023-06-14T09:41:26;101205.52;;;22.78;40.41
55733;BME280;41637;52.364;9.910;2023-06-14T09:43:57;101204.90;;;22.84;40.33
55733;BME280;41637;52.364;9.910;2023-06-14T09:46:27;101197.58;;;22.89;39.80
55733;BME280;41637;52.364;9.910;2023-06-14T09:48:54;101197.68;;;22.92;39.58
55733;BME280;41637;52.364;9.910;2023-06-14T09:51:23;101195.71;;;22.94;39.38
55733;BME280;41637;52.364;9.910;2023-06-14T09:53:50;101195.80;;;23.07;39.66
55733;BME280;41637;52.364;9.910;2023-06-14T09:56:23;101196.45;;;23.21;39.80
55733;BME280;41637;52.364;9.910;2023-06-14T09:58:56;101195.40;;;23.34;39.26
55733;BME280;41637;52.364;9.910;2023-06-14T10:01:34;101193.89;;;23.45;39.37
55733;BME280;41637;52.364;9.910;2023-06-14T10:04:04;101187.12;;;23.57;39.32
55733;BME280;41637;52.364;9.910;2023-06-14T10:06:40;101186.05;;;23.71;38.65
55733;BME280;41637;52.364;9.910;2023-06-14T10:09:09;101191.05;;;23.81;38.98
55733;BME280;41637;52.364;9.910;2023-06-14T10:11:37;101184.69;;;23.88;38.57
55733;BME280;41637;52.364;9.910;2023-06-14T10:14:08;101181.64;;;23.95;38.11
55733;BME280;41637;52.364;9.910;2023-06-14T10:16:52;101181.16;;;24.00;38.17
55733;BME280;41637;52.364;9.910;2023-06-14T10:19:30;101180.69;;;24.11;37.98
55733;BME280;41637;52.364;9.910;2023-06-14T10:22:06;101182.25;;;24.36;37.82
55733;BME280;41637;52.364;9.910;2023-06-14T10:24:40;101178.58;;;24.62;37.45
55733;BME280;41637;52.364;9.910;2023-06-14T10:27:08;101176.95;;;24.73;36.97
55733;BME280;41637;52.364;9.910;2023-06-14T10:30:02;101172.05;;;24.85;37.29
55733;BME280;41637;52.364;9.910;2023-06-14T10:32:29;101174.20;;;24.96;36.73
55733;BME280;41637;52.364;9.910;2023-06-14T10:35:05;101172.56;;;24.94;35.93
55733;BME280;41637;52.364;9.910;2023-06-14T10:37:33;101165.48;;;25.06;36.43
55733;BME280;41637;52.364;9.910;2023-06-14T10:40:02;101169.41;;;25.15;36.11
55733;BME280;41637;52.364;9.910;2023-06-14T10:42:34;101168.05;;;25.21;35.82
55733;BME280;41637;52.364;9.910;2023-06-14T10:45:01;101165.13;;;25.38;36.24
55733;BME280;41637;52.364;9.910;2023-06-14T10:47:29;101171.15;;;25.56;35.74
55733;BME280;41637;52.364;9.910;2023-06-14T10:50:05;101165.58;;;25.72;35.32
55733;BME280;41637;52.364;9.910;2023-06-14T10:52:35;101161.91;;;25.90;35.29
55733;BME280;41637;52.364;9.910;2023-06-14T10:55:12;101165.59;;;26.14;34.80
55733;BME280;41637;52.364;9.910;2023-06-14T10:57:52;101163.34;;;26.27;34.10
55733;BME280;41637;52.364;9.910;2023-06-14T11:00:23;101163.04;;;26.40;33.97
55733;BME280;41637;52.364;9.910;2023-06-14T11:11:00;101155.27;;;26.72;32.90
55733;BME280;41637;52.364;9.910;2023-06-14T11:13:27;101151.11;;;26.87;32.93
55733;BME280;41637;52.364;9.910;2023-06-14T11:15:57;101154.10;;;27.03;33.09
55733;BME280;41637;52.364;9.910;2023-06-14T11:18:24;101151.64;;;27.25;32.56
55733;BME280;41637;52.364;9.910;2023-06-14T11:21:03;101151.65;;;27.42;32.18
55733;BME280;41637;52.364;9.910;2023-06-14T11:23:29;101151.38;;;27.58;31.67
55733;BME280;41637;52.364;9.910;2023-06-14T11:25:59;101158.59;;;27.56;31.33
55733;BME280;41637;52.364;9.910;2023-06-14T11:28:39;101154.42;;;27.45;31.47
55733;BME280;41637;52.364;9.910;2023-06-14T11:31:07;101147.01;;;27.62;32.37
55733;BME280;41637;52.364;9.910;2023-06-14T11:33:34;101151.56;;;27.79;31.44
55733;BME280;41637;52.364;9.910;2023-06-14T11:36:02;101147.96;;;27.80;31.08
55733;BME280;41637;52.364;9.910;2023-06-14T11:38:29;101145.38;;;27.76;30.87
55733;BME280;41637;52.364;9.910;2023-06-14T11:40:59;101141.63;;;27.74;31.43
55733;BME280;41637;52.364;9.910;2023-06-14T11:43:27;101139.28;;;27.71;31.35
55733;BME280;41637;52.364;9.910;2023-06-14T11:45:53;101138.39;;;27.64;31.51
55733;BME280;41637;52.364;9.910;2023-06-14T11:48:41;101141.02;;;27.60;31.58
55733;BME280;41637;52.364;9.910;2023-06-14T11:51:08;101137.60;;;27.55;31.52
55733;BME280;41637;52.364;9.910;2023-06-14T11:53:35;101134.95;;;27.49;31.46
55733;BME280;41637;52.364;9.910;2023-06-14T11:56:02;101139.42;;;27.44;31.85
55733;BME280;41637;52.364;9.910;2023-06-14T11:58:30;101134.16;;;27.42;32.03
55733;BME280;41637;52.364;9.910;2023-06-14T12:00:56;101139.41;;;27.51;32.06
55733;BME280;41637;52.364;9.910;2023-06-14T12:03:24;101136.23;;;27.54;31.82
55733;BME280;41637;52.364;9.910;2023-06-14T12:06:12;101139.00;;;27.60;32.05
55733;BME280;41637;52.364;9.910;2023-06-14T12:08:39;101138.48;;;27.66;31.74
55733;BME280;41637;52.364;9.910;2023-06-14T12:11:10;101139.00;;;27.73;32.08
55733;BME280;41637;52.364;9.910;2023-06-14T12:13:38;101131.20;;;28.11;32.35
55733;BME280;41637;52.364;9.910;2023-06-14T12:16:11;101123.09;;;28.49;31.49
55733;BME280;41637;52.364;9.910;2023-06-14T12:18:40;101111.16;;;28.73;30.56
55733;BME280;41637;52.364;9.910;2023-06-14T12:21:08;101113.89;;;28.80;30.59
55733;BME280;41637;52.364;9.910;2023-06-14T12:24:03;101119.20;;;28.77;30.40
55733;BME280;41637;52.364;9.910;2023-06-14T12:26:30;101119.48;;;28.71;30.40
55733;BME280;41637;52.364;9.910;2023-06-14T12:28:57;101115.94;;;28.70;30.56
55733;BME280;41637;52.364;9.910;2023-06-14T12:31:24;101118.02;;;29.07;30.82
55733;BME280;41637;52.364;9.910;2023-06-14T12:33:52;101112.83;;;29.56;30.24
55733;BME280;41637;52.364;9.910;2023-06-14T12:36:19;101112.91;;;30.22;29.46
55733;BME280;41637;52.364;9.910;2023-06-14T12:38:46;101107.56;;;30.79;28.33
55733;BME280;41637;52.364;9.910;2023-06-14T12:41:13;101107.27;;;31.03;27.73
55733;BME280;41637;52.364;9.910;2023-06-14T12:43:41;101110.34;;;31.08;27.71
55733;BME280;41637;52.364;9.910;2023-06-14T12:46:08;101107.66;;;31.01;27.56
55733;BME280;41637;52.364;9.910;2023-06-14T12:48:35;101110.80;;;30.72;27.67
55733;BME280;41637;52.364;9.910;2023-06-14T12:51:01;101115.09;;;30.61;28.41
55733;BME280;41637;52.364;9.910;2023-06-14T12:53:28;101113.11;;;30.69;28.28
55733;BME280;41637;52.364;9.910;2023-06-14T12:55:54;101109.92;;;31.09;28.04
55733;BME280;41637;52.364;9.910;2023-06-14T12:58:21;101109.40;;;31.59;26.85
55733;BME280;41637;52.364;9.910;2023-06-14T13:00:50;101098.73;;;31.98;26.16
55733;BME280;41637;52.364;9.910;2023-06-14T13:03:17;101100.88;;;32.47;26.48
55733;BME280;41637;52.364;9.910;2023-06-14T13:05:44;101096.42;;;33.00;25.28
55733;BME280;41637;52.364;9.910;2023-06-14T13:08:11;101094.15;;;33.29;24.02
55733;BME280;41637;52.364;9.910;2023-06-14T13:10:37;101091.66;;;33.56;23.94
55733;BME280;41637;52.364;9.910;2023-06-14T13:13:04;101089.59;;;33.90;23.69
55733;BME280;41637;52.364;9.910;2023-06-14T13:15:31;101086.64;;;34.18;23.51
55733;BME280;41637;52.364;9.910;2023-06-14T13:17:58;101089.98;;;34.20;23.22
55733;BME280;41637;52.364;9.910;2023-06-14T13:20:25;101088.13;;;33.95;23.26
55733;BME280;41637;52.364;9.910;2023-06-14T13:22:52;101091.33;;;33.64;23.40
55733;BME280;41637;52.364;9.910;2023-06-14T13:25:18;101088.41;;;33.58;24.05
55733;BME280;41637;52.364;9.910;2023-06-14T13:27:45;101091.15;;;33.63;23.91